createdAt,value
2019-05-30T00:00:26.366Z,18.17
2019-05-30T00:02:56.692Z,18.20
2019-05-30T00:05:25.944Z,18.22
2019-05-30T00:07:56.067Z,18.24
2019-05-30T00:10:25.541Z,18.27
2019-05-30T00:12:54.768Z,18.31
2019-05-30T00:15:23.764Z,18.34
2019-05-30T00:17:52.801Z,18.34
2019-05-30T00:20:21.860Z,18.36
2019-05-30T00:22:50.925Z,18.39
2019-05-30T00:25:19.958Z,18.41
2019-05-30T00:27:49.057Z,18.42
2019-05-30T00:30:24.579Z,18.46
2019-05-30T00:32:48.961Z,18.48
2019-05-30T00:35:18.050Z,18.50
2019-05-30T00:37:47.139Z,18.54
2019-05-30T00:40:16.145Z,18.56
2019-05-30T00:42:45.208Z,18.60
2019-05-30T00:45:20.786Z,18.63
2019-05-30T00:47:45.175Z,18.69
2019-05-30T00:50:14.236Z,18.72
2019-05-30T00:52:43.333Z,18.80
2019-05-30T00:55:12.508Z,18.85
2019-05-30T00:57:41.571Z,18.83
2019-05-30T01:00:10.638Z,18.85
2019-05-30T01:02:39.670Z,18.86
2019-05-30T01:05:08.725Z,18.84
2019-05-30T01:07:37.809Z,18.84
2019-05-30T01:10:07.609Z,18.86
2019-05-30T01:12:36.757Z,18.86
2019-05-30T01:15:07.484Z,18.86
2019-05-30T01:17:37.735Z,18.88
2019-05-30T01:20:07.431Z,18.89
2019-05-30T01:22:36.684Z,18.92
2019-05-30T01:25:07.650Z,18.94
2019-05-30T01:27:36.995Z,18.98
2019-05-30T01:30:07.944Z,19.00
2019-05-30T01:32:37.095Z,18.99
2019-05-30T01:35:06.165Z,19.01
2019-05-30T01:37:35.257Z,19.02
2019-05-30T01:40:06.344Z,19.02
2019-05-30T01:42:35.523Z,19.03
2019-05-30T01:45:04.763Z,18.98
2019-05-30T01:47:33.904Z,18.98
2019-05-30T01:50:04.348Z,18.98
2019-05-30T01:52:33.416Z,18.95
2019-05-30T01:55:02.857Z,18.93
2019-05-30T01:57:31.929Z,18.90
2019-05-30T02:00:00.988Z,18.86
2019-05-30T02:02:30.073Z,18.87
2019-05-30T02:04:59.186Z,18.85
2019-05-30T02:07:28.318Z,18.86
2019-05-30T02:09:57.407Z,18.86
2019-05-30T02:12:26.560Z,18.85
2019-05-30T02:14:55.651Z,18.85
2019-05-30T02:17:24.816Z,18.81
2019-05-30T02:19:53.958Z,18.82
2019-05-30T02:22:23.056Z,18.82
2019-05-30T02:24:52.226Z,18.80
2019-05-30T02:27:21.307Z,18.79
2019-05-30T02:29:50.487Z,18.79
2019-05-30T02:32:19.515Z,18.76
2019-05-30T02:34:48.625Z,18.77
2019-05-30T02:37:17.754Z,18.78
2019-05-30T02:39:46.818Z,18.77
2019-05-30T02:42:15.922Z,18.77
2019-05-30T02:44:44.988Z,18.72
2019-05-30T02:47:14.113Z,18.72
2019-05-30T02:49:43.134Z,18.73
2019-05-30T02:52:13.091Z,18.72
2019-05-30T02:54:42.328Z,18.72
2019-05-30T02:57:12.586Z,18.72
2019-05-30T02:59:42.073Z,18.70
2019-05-30T03:02:15.173Z,18.69
2019-05-30T03:04:41.934Z,18.70
2019-05-30T03:07:12.905Z,18.72
2019-05-30T03:09:41.840Z,18.75
2019-05-30T03:12:13.186Z,18.78
2019-05-30T03:14:41.742Z,18.74
2019-05-30T03:17:12.597Z,18.76
2019-05-30T03:19:41.784Z,18.76
2019-05-30T03:22:13.813Z,18.74
2019-05-30T03:24:42.781Z,18.76
2019-05-30T03:27:14.040Z,18.78
2019-05-30T03:29:42.764Z,18.75
2019-05-30T03:32:51.433Z,18.71
2019-05-30T03:34:42.691Z,18.71
2019-05-30T03:37:23.004Z,18.72
2019-05-30T03:39:42.642Z,18.72
2019-05-30T03:42:13.231Z,18.75
2019-05-30T03:44:42.520Z,18.73
2019-05-30T03:47:13.808Z,18.80
2019-05-30T03:49:44.186Z,18.82
2019-05-30T03:52:16.803Z,18.84
2019-05-30T03:54:45.452Z,18.88
2019-05-30T03:57:17.987Z,18.93
2019-05-30T03:59:55.205Z,18.96
2019-05-30T04:02:54.639Z,18.95
2019-05-30T04:05:07.541Z,18.88
2019-05-30T04:07:40.507Z,18.90
2019-05-30T04:10:11.268Z,18.87
2019-05-30T04:13:09.807Z,18.90
2019-05-30T04:15:39.652Z,18.88
2019-05-30T04:18:09.709Z,18.89
2019-05-30T04:20:39.528Z,18.95
2019-05-30T04:23:10.670Z,18.96
2019-05-30T04:25:39.450Z,18.98
2019-05-30T04:28:09.742Z,19.01
2019-05-30T04:30:38.952Z,19.02
2019-05-30T04:33:19.355Z,19.02
2019-05-30T04:35:38.859Z,19.03
2019-05-30T04:38:08.575Z,19.07
2019-05-30T04:40:37.674Z,19.10
2019-05-30T04:43:06.868Z,19.11
2019-05-30T04:45:35.981Z,19.11
2019-05-30T04:48:05.217Z,19.12
2019-05-30T04:50:34.365Z,19.13
2019-05-30T05:09:09.588Z,19.37
2019-05-30T05:11:38.732Z,19.42
2019-05-30T05:14:07.846Z,19.48
2019-05-30T05:16:37.161Z,19.56
2019-05-30T05:19:06.359Z,19.63
2019-05-30T05:21:35.516Z,19.69
2019-05-30T05:24:04.752Z,19.74
2019-05-30T05:26:33.854Z,19.75
2019-05-30T05:29:02.991Z,19.80
2019-05-30T05:31:32.109Z,19.82
2019-05-30T05:34:01.218Z,19.90
2019-05-30T05:36:30.305Z,19.94
2019-05-30T05:38:59.546Z,20.01
2019-05-30T05:41:28.749Z,20.06
2019-05-30T05:43:57.802Z,20.15
2019-05-30T05:46:26.896Z,20.27
2019-05-30T05:48:55.958Z,20.40
2019-05-30T05:51:25.089Z,20.51
2019-05-30T05:53:54.169Z,20.66
2019-05-30T05:56:23.254Z,20.72
2019-05-30T05:58:52.256Z,20.75
2019-05-30T06:01:21.543Z,20.79
2019-05-30T06:03:50.682Z,20.81
2019-05-30T06:06:19.725Z,20.86
2019-05-30T06:08:48.832Z,20.86
2019-05-30T06:11:18.625Z,20.91
2019-05-30T06:13:47.827Z,20.93
2019-05-30T06:16:17.803Z,20.93
2019-05-30T06:18:48.939Z,20.95
2019-05-30T06:21:23.756Z,20.93
2019-05-30T06:23:52.832Z,20.93
2019-05-30T06:26:25.899Z,20.90
2019-05-30T06:28:55.068Z,20.89
2019-05-30T06:31:24.505Z,20.93
2019-05-30T06:33:53.635Z,20.92
2019-05-30T06:36:23.044Z,20.93
2019-05-30T06:38:52.386Z,20.93
2019-05-30T06:41:21.604Z,20.98
2019-05-30T06:43:50.775Z,21.01
2019-05-30T06:46:20.110Z,21.07
2019-05-30T06:48:49.306Z,21.07
2019-05-30T06:51:18.601Z,20.99
2019-05-30T06:53:48.498Z,20.97
2019-05-30T06:56:19.004Z,20.94
2019-05-30T06:58:49.295Z,20.93
2019-05-30T07:01:25.850Z,20.89
2019-05-30T07:03:55.470Z,20.88
2019-05-30T07:06:25.510Z,20.80
2019-05-30T07:08:56.434Z,20.77
2019-05-30T07:11:26.783Z,20.74
2019-05-30T07:13:56.107Z,20.83
2019-05-30T07:16:25.606Z,20.88
2019-05-30T07:18:54.863Z,21.00
2019-05-30T07:21:25.450Z,21.13
2019-05-30T07:23:54.998Z,21.26
2019-05-30T07:26:27.713Z,21.43
2019-05-30T07:29:00.556Z,21.54
2019-05-30T07:31:30.239Z,21.60
2019-05-30T07:34:00.134Z,21.63
2019-05-30T07:36:32.652Z,21.62
2019-05-30T07:39:02.544Z,21.58
2019-05-30T07:41:34.866Z,21.59
2019-05-30T07:44:04.711Z,21.54
2019-05-30T07:46:37.474Z,21.57
2019-05-30T07:49:06.811Z,21.50
2019-05-30T07:51:36.361Z,21.39
2019-05-30T07:54:08.593Z,21.31
2019-05-30T07:56:38.109Z,21.32
2019-05-30T07:59:11.542Z,21.44
2019-05-30T08:01:40.789Z,21.64
2019-05-30T08:04:10.011Z,21.90
2019-05-30T08:06:39.435Z,22.21
2019-05-30T08:09:10.913Z,22.54
2019-05-30T08:11:40.253Z,22.75
2019-05-30T08:14:09.464Z,22.87
2019-05-30T08:16:38.637Z,22.95
2019-05-30T08:19:08.636Z,22.88
2019-05-30T08:21:40.489Z,22.86
2019-05-30T08:24:09.625Z,22.87
2019-05-30T08:26:39.665Z,22.92
2019-05-30T08:29:08.717Z,23.11
2019-05-30T08:31:38.880Z,23.39
2019-05-30T08:34:08.016Z,23.48
2019-05-30T08:36:37.155Z,23.56
2019-05-30T08:39:07.514Z,23.69
2019-05-30T08:41:37.356Z,23.72
2019-05-30T08:44:06.503Z,23.61
2019-05-30T08:46:44.699Z,23.47
2019-05-30T08:49:13.770Z,23.47
2019-05-30T08:51:42.964Z,23.55
2019-05-30T08:54:14.148Z,23.74
2019-05-30T08:56:43.308Z,23.95
2019-05-30T08:59:12.411Z,24.05
2019-05-30T09:01:42.155Z,23.94
2019-05-30T09:04:11.363Z,23.89
2019-05-30T09:06:40.480Z,23.80
2019-05-30T09:09:09.611Z,23.68
2019-05-30T09:11:39.317Z,23.57
2019-05-30T09:14:09.461Z,23.46
2019-05-30T09:16:38.734Z,23.44
2019-05-30T09:19:07.765Z,23.51
2019-05-30T09:21:38.200Z,23.55
2019-05-30T09:24:07.774Z,23.57
2019-05-30T09:26:38.522Z,23.69
2019-05-30T09:29:07.966Z,23.86
2019-05-30T09:31:38.086Z,23.91
2019-05-30T09:34:07.924Z,23.93
2019-05-30T09:36:36.994Z,24.04
2019-05-30T09:39:07.543Z,24.25
2019-05-30T09:41:36.663Z,24.62
2019-05-30T09:44:06.185Z,24.76
2019-05-30T09:46:35.349Z,24.88
2019-05-30T09:49:04.409Z,25.12
2019-05-30T09:51:33.548Z,25.34
2019-05-30T09:54:02.638Z,25.47
2019-05-30T09:56:31.697Z,25.70
2019-05-30T09:59:00.847Z,26.02
2019-05-30T10:01:29.883Z,26.41
2019-05-30T10:03:59.017Z,26.75
2019-05-30T10:06:29.889Z,26.95
2019-05-30T10:08:58.912Z,26.94
2019-05-30T10:11:27.992Z,26.66
2019-05-30T10:13:57.161Z,26.26
2019-05-30T10:16:26.294Z,25.85
2019-05-30T10:18:55.453Z,25.41
2019-05-30T10:21:24.575Z,25.04
2019-05-30T10:23:53.809Z,24.81
2019-05-30T10:26:22.965Z,24.67
2019-05-30T10:28:53.242Z,24.59
2019-05-30T10:31:22.383Z,24.47
2019-05-30T10:33:52.893Z,24.42
2019-05-30T10:36:22.187Z,24.39
2019-05-30T10:38:52.186Z,24.33
2019-05-30T10:41:21.369Z,24.36
2019-05-30T10:43:51.160Z,24.37
2019-05-30T10:46:20.301Z,24.30
2019-05-30T10:48:50.759Z,24.21
2019-05-30T10:51:21.262Z,24.08
2019-05-30T10:53:50.933Z,23.96
2019-05-30T10:56:21.387Z,23.83
2019-05-30T10:58:50.809Z,23.66
2019-05-30T11:01:19.949Z,23.54
2019-05-30T11:03:50.292Z,23.58
2019-05-30T11:06:26.781Z,23.48
2019-05-30T11:08:56.882Z,23.46
2019-05-30T11:11:25.989Z,23.38
2019-05-30T11:13:55.399Z,23.37
2019-05-30T11:16:24.541Z,23.36
2019-05-30T11:18:54.585Z,23.40
2019-05-30T11:21:24.408Z,23.52
2019-05-30T11:23:54.439Z,23.74
2019-05-30T11:26:23.479Z,24.06
2019-05-30T11:28:52.686Z,24.41
2019-05-30T11:31:21.902Z,24.64
2019-05-30T11:33:50.959Z,24.74
2019-05-30T11:36:20.017Z,24.67
2019-05-30T11:38:49.169Z,24.60
2019-05-30T11:41:18.218Z,24.61
2019-05-30T11:43:51.439Z,24.62
2019-05-30T11:46:20.675Z,24.57
2019-05-30T11:48:49.766Z,24.52
2019-05-30T11:51:18.889Z,24.50
2019-05-30T11:53:47.980Z,24.50
2019-05-30T11:56:17.100Z,24.51
2019-05-30T11:58:46.281Z,24.50
2019-05-30T12:01:16.199Z,24.51
2019-05-30T12:03:45.996Z,24.50
2019-05-30T12:06:15.335Z,24.29
2019-05-30T12:08:44.701Z,24.36
2019-05-30T12:11:13.853Z,24.39
2019-05-30T12:13:42.855Z,24.37
2019-05-30T12:16:12.099Z,24.39
2019-05-30T12:18:41.451Z,24.39
2019-05-30T12:21:10.631Z,24.34
2019-05-30T12:23:39.921Z,24.32
2019-05-30T12:26:09.123Z,24.37
2019-05-30T12:28:38.193Z,24.49
2019-05-30T12:31:07.473Z,24.49
2019-05-30T12:33:36.623Z,24.46
2019-05-30T12:36:05.805Z,24.42
2019-05-30T12:38:34.957Z,24.41
2019-05-30T12:41:04.171Z,24.33
2019-05-30T12:43:59.310Z,24.23
2019-05-30T12:46:28.506Z,24.22
2019-05-30T12:48:57.684Z,24.18
2019-05-30T12:51:26.810Z,24.12
2019-05-30T12:53:56.344Z,24.12
2019-05-30T12:56:25.453Z,24.11
2019-05-30T12:58:54.620Z,24.14
2019-05-30T13:01:27.280Z,24.16
2019-05-30T13:03:54.915Z,24.19
2019-05-30T13:06:23.990Z,24.20
2019-05-30T13:08:53.096Z,24.19
2019-05-30T13:11:22.190Z,24.19
2019-05-30T13:13:51.359Z,24.17
2019-05-30T13:16:20.382Z,24.19
2019-05-30T13:18:49.698Z,24.20
2019-05-30T13:21:18.915Z,24.18
2019-05-30T13:23:48.000Z,24.12
2019-05-30T13:26:17.114Z,24.07
2019-05-30T13:28:46.241Z,24.05
2019-05-30T13:31:15.331Z,24.04
2019-05-30T13:33:44.427Z,24.05
2019-05-30T13:36:13.773Z,24.02
2019-05-30T13:38:42.755Z,24.00
2019-05-30T13:41:11.844Z,23.96
2019-05-30T13:43:41.003Z,23.90
2019-05-30T13:46:10.014Z,23.89
2019-05-30T13:48:39.108Z,23.89
2019-05-30T13:51:09.121Z,23.86
2019-05-30T13:53:38.216Z,23.82
2019-05-30T13:56:07.798Z,23.82
2019-05-30T13:58:36.963Z,23.79
2019-05-30T14:01:11.422Z,23.79
2019-05-30T14:03:36.799Z,23.80
2019-05-30T14:06:06.253Z,23.80
2019-05-30T14:08:41.494Z,23.72
2019-05-30T14:11:06.785Z,23.69
2019-05-30T14:13:35.965Z,23.66
2019-05-30T14:16:05.035Z,23.59
2019-05-30T14:18:35.308Z,23.51
2019-05-30T14:21:05.173Z,23.41
2019-05-30T14:23:34.270Z,23.34
2019-05-30T14:26:03.299Z,23.32
2019-05-30T14:28:32.550Z,23.29
2019-05-30T14:31:03.393Z,23.30
2019-05-30T14:33:32.435Z,23.28
2019-05-30T14:36:04.573Z,23.29
2019-05-30T14:38:32.332Z,23.32
2019-05-30T14:41:02.818Z,23.36
2019-05-30T14:43:32.131Z,23.40
2019-05-30T14:46:01.330Z,23.41
2019-05-30T14:48:30.501Z,23.44
2019-05-30T14:50:59.629Z,23.50
2019-05-30T14:53:28.702Z,23.56
2019-05-30T14:55:57.731Z,23.56
2019-05-30T14:58:26.736Z,23.58
2019-05-30T15:00:55.900Z,23.63
2019-05-30T15:03:24.949Z,23.72
2019-05-30T15:05:53.985Z,23.89
2019-05-30T15:08:23.069Z,24.10
2019-05-30T15:10:52.181Z,24.27
2019-05-30T15:13:21.231Z,24.48
2019-05-30T15:15:50.596Z,24.68
2019-05-30T15:18:19.672Z,24.85
2019-05-30T15:20:49.640Z,24.99
2019-05-30T15:23:18.802Z,25.16
2019-05-30T15:25:47.969Z,25.29
2019-05-30T15:28:17.292Z,25.19
2019-05-30T15:30:46.778Z,25.10
2019-05-30T15:33:16.607Z,24.96
2019-05-30T15:35:46.042Z,24.92
2019-05-30T15:38:16.862Z,24.74
2019-05-30T15:40:46.532Z,24.69
2019-05-30T15:43:15.862Z,24.79
2019-05-30T15:45:45.514Z,24.96
2019-05-30T15:48:14.702Z,25.15
2019-05-30T15:50:44.214Z,25.27
2019-05-30T15:53:13.402Z,25.32
2019-05-30T15:55:42.719Z,25.28
2019-05-30T15:58:11.905Z,25.16
2019-05-30T16:00:41.158Z,25.17
2019-05-30T16:03:10.513Z,25.21
2019-05-30T16:05:39.669Z,25.20
2019-05-30T16:08:08.812Z,25.20
2019-05-30T16:10:37.934Z,25.31
2019-05-30T16:13:07.102Z,25.32
2019-05-30T16:15:36.409Z,25.30
2019-05-30T16:18:05.594Z,25.29
2019-05-30T16:20:38.658Z,25.31
2019-05-30T16:23:08.762Z,25.32
2019-05-30T16:25:40.778Z,25.27
2019-05-30T16:28:15.713Z,25.26
2019-05-30T16:30:47.377Z,25.21
2019-05-30T16:33:18.023Z,25.17
2019-05-30T16:35:47.657Z,25.21
2019-05-30T16:38:27.271Z,25.29
2019-05-30T16:40:56.303Z,25.31
2019-05-30T16:43:26.606Z,25.36
2019-05-30T16:45:56.491Z,25.36
2019-05-30T16:48:26.716Z,25.35
2019-05-30T16:50:56.233Z,25.29
2019-05-30T16:53:25.952Z,25.23
2019-05-30T16:56:00.581Z,25.15
2019-05-30T16:58:30.120Z,25.07
2019-05-30T17:01:02.101Z,25.01
2019-05-30T17:03:31.262Z,24.91
2019-05-30T17:06:00.619Z,24.83
2019-05-30T17:08:30.169Z,24.73
2019-05-30T17:11:02.850Z,24.63
2019-05-30T17:13:41.239Z,24.55
2019-05-30T17:16:24.166Z,24.47
2019-05-30T17:18:54.049Z,24.40
2019-05-30T17:21:27.611Z,24.32
2019-05-30T17:23:59.532Z,24.27
2019-05-30T17:26:30.352Z,24.22
2019-05-30T17:29:00.080Z,24.21
2019-05-30T17:31:32.170Z,24.22
2019-05-30T17:34:03.476Z,24.21
2019-05-30T17:36:33.152Z,24.19
2019-05-30T17:39:05.526Z,24.16
2019-05-30T17:41:34.824Z,24.15
2019-05-30T17:44:04.449Z,24.13
2019-05-30T17:46:33.544Z,24.12
2019-05-30T17:49:02.935Z,24.13
2019-05-30T17:51:32.009Z,24.12
2019-05-30T17:54:01.100Z,24.12
2019-05-30T17:56:30.318Z,24.16
2019-05-30T17:59:00.155Z,24.18
2019-05-30T18:01:30.432Z,24.15
2019-05-30T18:03:59.595Z,24.18
2019-05-30T18:06:28.743Z,24.19
2019-05-30T18:08:57.787Z,24.16
2019-05-30T18:11:26.981Z,24.10
2019-05-30T18:13:56.143Z,24.07
2019-05-30T18:16:25.311Z,24.05
2019-05-30T18:18:54.345Z,24.00
2019-05-30T18:21:23.469Z,23.97
2019-05-30T18:23:52.525Z,23.95
2019-05-30T18:26:21.669Z,23.93
2019-05-30T18:28:50.761Z,23.92
2019-05-30T18:31:25.882Z,23.86
2019-05-30T18:33:54.990Z,23.81
2019-05-30T18:36:24.387Z,23.77
2019-05-30T18:38:53.431Z,23.67
2019-05-30T18:41:22.704Z,23.62
2019-05-30T18:43:52.151Z,23.54
2019-05-30T18:46:21.320Z,23.46
2019-05-30T18:48:50.354Z,23.37
2019-05-30T18:51:19.457Z,23.32
2019-05-30T18:53:48.560Z,23.28
2019-05-30T18:56:17.649Z,23.24
2019-05-30T18:58:46.688Z,23.21
2019-05-30T19:01:15.824Z,23.20
2019-05-30T19:03:44.962Z,23.16
2019-05-30T19:06:14.116Z,23.14
2019-05-30T19:08:43.252Z,23.14
2019-05-30T19:11:26.593Z,23.13
2019-05-30T19:13:43.085Z,23.13
2019-05-30T19:16:12.148Z,23.12
2019-05-30T19:18:41.186Z,23.12
2019-05-30T19:21:10.372Z,23.11
2019-05-30T19:23:39.869Z,23.11
2019-05-30T19:26:08.962Z,23.10
2019-05-30T19:28:38.374Z,23.09
2019-05-30T19:31:07.888Z,23.06
2019-05-30T19:33:37.217Z,23.07
2019-05-30T19:36:06.289Z,23.08
2019-05-30T19:38:35.520Z,23.09
2019-05-30T19:41:04.686Z,23.10
2019-05-30T19:43:33.852Z,23.08
2019-05-30T19:46:02.882Z,23.06
2019-05-30T19:48:32.312Z,23.06
2019-05-30T19:51:01.440Z,23.03
2019-05-30T19:53:30.851Z,23.01
2019-05-30T19:55:59.967Z,23.00
2019-05-30T19:58:29.530Z,22.97
2019-05-30T20:00:59.256Z,22.98
2019-05-30T20:03:38.341Z,22.99
2019-05-30T20:05:59.439Z,23.00
2019-05-30T20:08:44.863Z,23.00
2019-05-30T20:10:59.311Z,23.01
2019-05-30T20:13:28.550Z,23.01
2019-05-30T20:15:57.568Z,22.98
2019-05-30T20:18:26.598Z,22.93
2019-05-30T20:20:57.819Z,22.91
2019-05-30T20:23:26.523Z,22.87
2019-05-30T20:25:55.877Z,22.85
2019-05-30T20:28:24.936Z,22.83
2019-05-30T20:30:53.958Z,22.79
2019-05-30T20:33:22.969Z,22.73
2019-05-30T20:35:51.999Z,22.69
2019-05-30T20:38:21.052Z,22.65
2019-05-30T20:40:50.113Z,22.61
2019-05-30T20:43:19.144Z,22.56
2019-05-30T20:45:49.987Z,22.49
2019-05-30T20:48:19.282Z,22.45
2019-05-30T20:50:48.445Z,22.41
2019-05-30T20:53:20.445Z,22.37
2019-05-30T20:55:48.754Z,22.33
2019-05-30T20:58:18.264Z,22.30
2019-05-30T21:00:47.340Z,22.22
2019-05-30T21:03:16.408Z,22.19
2019-05-30T21:05:46.033Z,22.15
2019-05-30T21:08:15.432Z,22.13
2019-05-30T21:10:44.608Z,22.09
2019-05-30T21:13:13.716Z,22.05
2019-05-30T21:15:43.653Z,22.01
2019-05-30T21:18:12.730Z,22.00
2019-05-30T21:20:42.154Z,21.97
2019-05-30T21:23:12.027Z,21.92
2019-05-30T21:25:41.167Z,21.89
2019-05-30T21:28:10.192Z,21.83
2019-05-30T21:30:39.240Z,21.83
2019-05-30T21:33:08.281Z,21.78
2019-05-30T21:35:37.603Z,21.77
2019-05-30T21:38:06.764Z,21.72
2019-05-30T21:40:35.923Z,21.71
2019-05-30T21:43:17.887Z,21.71
2019-05-30T21:45:35.704Z,21.68
2019-05-30T21:48:04.801Z,21.67
2019-05-30T21:50:33.823Z,21.65
2019-05-30T21:53:02.883Z,21.63
2019-05-30T21:55:31.944Z,21.61
2019-05-30T21:58:01.002Z,21.58
2019-05-30T22:01:17.180Z,21.56
2019-05-30T22:03:46.715Z,21.51
2019-05-30T22:06:16.997Z,21.51
2019-05-30T22:08:47.132Z,21.51
2019-05-30T22:11:16.292Z,21.49
2019-05-30T22:13:45.532Z,21.48
2019-05-30T22:16:14.588Z,21.48
2019-05-30T22:18:44.118Z,21.49
2019-05-30T22:21:13.242Z,21.47
2019-05-30T22:23:42.287Z,21.47
2019-05-30T22:26:11.330Z,21.48
2019-05-30T22:28:40.346Z,21.50
2019-05-30T22:31:09.453Z,21.53
2019-05-30T22:33:38.536Z,21.55
2019-05-30T22:36:07.644Z,21.56
2019-05-30T22:38:36.664Z,21.56
2019-05-30T22:41:05.713Z,21.56
2019-05-30T22:43:34.745Z,21.53
2019-05-30T22:46:03.795Z,21.49
2019-05-30T22:48:32.789Z,21.44
2019-05-30T22:51:01.821Z,21.43
2019-05-30T22:53:30.932Z,21.47
2019-05-30T22:56:00.048Z,21.50
2019-05-30T22:58:29.156Z,21.54
2019-05-30T23:00:58.194Z,21.55
2019-05-30T23:03:27.332Z,21.60
2019-05-30T23:05:57.552Z,21.61
2019-05-30T23:08:26.649Z,21.63
2019-05-30T23:10:55.853Z,21.64
2019-05-30T23:13:37.759Z,21.65
2019-05-30T23:15:57.078Z,21.66
2019-05-30T23:18:26.280Z,21.68
2019-05-30T23:20:55.310Z,21.67
2019-05-30T23:23:24.437Z,21.67
2019-05-30T23:25:53.517Z,21.69
2019-05-30T23:28:22.658Z,21.71
2019-05-30T23:30:52.022Z,21.70
2019-05-30T23:33:21.045Z,21.71
2019-05-30T23:35:50.320Z,21.73
2019-05-30T23:38:19.349Z,21.77
2019-05-30T23:40:48.957Z,21.80
2019-05-30T23:43:18.019Z,21.82
2019-05-30T23:45:47.119Z,21.84
2019-05-30T23:48:16.141Z,21.85
2019-05-30T23:50:45.160Z,21.85
2019-05-30T23:53:14.233Z,21.87
2019-05-30T23:55:43.311Z,21.85
2019-05-30T23:58:12.399Z,21.86
